Meteorología y climatología de Navarra
Datos de la estación - Meteo Navarra

Estación de Eltzaburu GN

Altitud 588 m.


Datos desde el 03/12/2019 hasta el 04/12/2019 en horario solar
Los datos son PROVISIONALES

Anterior Página 1 de 1 Siguiente Descargar: Formato para Excel 2000 o superior   Formato csv   Formato para OpenOffice Calc
Fecha Temperatura Humedad relativa Radiación global Insolación Precipitación Vel. viento 10 m Vel. viento 10 m Dir. viento 10 m
ºC % W/m² s l/m² m/s km/h º
03/12/2019 0:00 2.1 91 0.0 0 0.0 1.5 5.3 359
03/12/2019 0:10 2.1 91 0.0 0 0.0 1.9 6.7 2
03/12/2019 0:20 2.1 92 0.0 0 0.0 2.4 8.7 346
03/12/2019 0:30 2.0 93 0.0 0 0.0 1.6 5.7 335
03/12/2019 0:40 1.9 94 0.0 0 0.0 1.4 5.0 332
03/12/2019 0:50 1.9 94 0.0 0 0.0 1.4 5.0 352
03/12/2019 1:00 1.9 94 0.0 0 0.0 2.2 8.0 334
03/12/2019 1:10 1.9 94 0.0 0 0.0 2.2 7.9 333
03/12/2019 1:20 1.8 94 0.0 0 0.0 3.0 10.9 335
03/12/2019 1:30 1.8 95 0.0 0 0.0 2.4 8.6 329
03/12/2019 1:40 1.7 94 0.0 0 0.0 3.2 11.4 327
03/12/2019 1:50 1.7 93 0.0 0 0.0 2.1 7.6 324
03/12/2019 2:00 1.8 92 0.0 0 0.0 1.8 6.5 344
03/12/2019 2:10 1.8 92 0.0 0 0.0 2.4 8.8 2
03/12/2019 2:20 1.9 91 0.0 0 0.0 3.4 12.3 344
03/12/2019 2:30 1.8 92 0.0 0 0.0 2.5 9.0 338
03/12/2019 2:40 1.8 93 0.0 0 0.0 2.8 10.1 327
03/12/2019 2:50 1.7 94 0.0 0 0.0 2.4 8.7 319
03/12/2019 3:00 1.8 94 0.0 0 0.0 2.5 9.0 319
03/12/2019 3:10 1.8 94 0.0 0 0.0 2.8 10.0 329
03/12/2019 3:20 1.7 95 0.0 0 0.0 3.5 12.6 337
03/12/2019 3:30 1.7 95 0.0 0 0.0 2.9 10.3 322
03/12/2019 3:40 1.7 95 0.0 0 0.0 2.4 8.6 336
03/12/2019 3:50 1.7 95 0.0 0 0.0 2.8 9.9 333
03/12/2019 4:00 1.7 95 0.0 0 0.0 2.3 8.3 350
03/12/2019 4:10 1.7 95 0.0 0 0.0 2.7 9.5 337
03/12/2019 4:20 1.7 95 0.0 0 0.0 2.8 10.2 332
03/12/2019 4:30 1.7 95 0.0 0 0.0 3.4 12.4 327
03/12/2019 4:40 1.7 94 0.0 0 0.0 3.3 11.8 325
03/12/2019 4:50 1.7 94 0.0 0 0.0 1.8 6.6 337
03/12/2019 5:00 1.7 94 0.0 0 0.0 3.3 11.9 323
03/12/2019 5:10 1.7 95 0.0 0 0.0 2.9 10.5 321
03/12/2019 5:20 1.7 95 0.0 0 0.0 2.5 8.9 325
03/12/2019 5:30 1.7 94 0.0 0 0.0 2.2 7.8 323
03/12/2019 5:40 1.8 94 0.0 0 0.0 2.2 8.0 317
03/12/2019 5:50 1.7 94 0.0 0 0.0 2.2 7.9 317
03/12/2019 6:00 1.7 94 0.0 0 0.0 2.9 10.3 326
03/12/2019 6:10 1.8 94 0.0 0 0.0 3.0 10.9 326
03/12/2019 6:20 1.8 93 0.0 0 0.0 2.7 9.8 325
03/12/2019 6:30 1.8 93 0.0 0 0.0 2.5 9.0 334
03/12/2019 6:40 1.8 93 0.0 0 0.0 2.0 7.0 326
03/12/2019 6:50 1.8 93 0.0 0 0.0 2.7 9.6 333
03/12/2019 7:00 1.8 93 0.0 0 0.0 2.2 8.0 338
03/12/2019 7:10 1.8 91 0.0 0 0.0 2.2 8.0 339
03/12/2019 7:20 1.9 91 0.0 0 0.0 2.7 9.6 325
03/12/2019 7:30 1.9 90 0.0 0 0.0 3.2 11.6 341
03/12/2019 7:40 1.9 89 0.0 0 0.0 3.1 11.0 336
03/12/2019 7:50 1.9 90 0.0 0 0.0 3.2 11.4 337
03/12/2019 8:00 1.9 89 0.0 0 0.0 2.6 9.4 333
03/12/2019 8:10 1.8 89 0.0 0 0.0 2.9 10.5 327
03/12/2019 8:20 1.9 89 0.0 0 0.0 2.6 9.4 329
03/12/2019 8:30 1.9 89 15.7 0 0.0 2.4 8.7 333
03/12/2019 8:40 1.9 89 19.9 0 0.0 2.8 10.1 327
03/12/2019 8:50 1.9 90 27.0 0 0.0 3.1 11.2 336
03/12/2019 9:00 1.8 89 33.9 0 0.0 2.9 10.4 337
03/12/2019 9:10 1.9 89 41.7 0 0.0 2.3 8.3 346
03/12/2019 9:20 2.0 89 46.3 0 0.0 2.3 8.4 356
03/12/2019 9:30 2.0 89 53.3 0 0.0 2.0 7.3 341
03/12/2019 9:40 2.0 89 51.0 0 0.0 2.6 9.5 0
03/12/2019 9:50 2.0 90 54.2 0 0.0 2.5 9.1 343
03/12/2019 10:00 1.9 90 45.1 0 0.0 2.9 10.3 331
03/12/2019 10:10 1.9 90 62.8 0 0.0 2.6 9.5 337
03/12/2019 10:20 1.9 90 58.1 0 0.0 2.7 9.6 338
03/12/2019 10:30 2.0 89 46.0 0 0.0 1.5 5.5 323
03/12/2019 10:40 2.0 89 53.9 0 0.0 1.5 5.2 333
03/12/2019 10:50 2.1 88 57.1 0 0.0 1.5 5.3 341
03/12/2019 11:00 2.1 89 71.9 0 0.0 1.7 5.9 333
03/12/2019 11:10 2.2 88 61.3 0 0.0 2.2 7.8 340
03/12/2019 11:20 2.1 88 67.8 0 0.0 1.7 5.9 316
03/12/2019 11:30 2.2 87 72.0 0 0.0 2.9 10.3 329
03/12/2019 11:40 2.2 87 85.9 0 0.0 2.8 10.0 345
03/12/2019 11:50 2.3 87 83.4 0 0.0 1.8 6.3 349
03/12/2019 12:00 2.3 87 86.3 0 0.0 1.4 5.1 355
03/12/2019 12:10 2.4 87 103.2 0 0.0 1.9 6.9 348
03/12/2019 12:20 2.5 87 121.7 0 0.0 2.0 7.1 330
03/12/2019 12:30 2.5 86 134.7 0 0.0 2.0 7.2 326
03/12/2019 12:40 2.7 86 144.9 0 0.0 1.7 6.0 328
03/12/2019 12:50 2.9 86 175.0 0 0.0 2.0 7.3 328
03/12/2019 13:00 3.0 85 200.8 38 0.0 2.2 7.7 335
03/12/2019 13:10 3.2 83 313.8 582 0.0 1.9 6.7 338
03/12/2019 13:20 3.3 84 202.2 240 0.0 2.1 7.7 333
03/12/2019 13:30 3.2 84 196.0 192 0.0 2.0 7.2 341
03/12/2019 13:40 3.3 82 237.6 512 0.0 1.8 6.5 332
03/12/2019 13:50 3.6 81 207.4 528 0.0 1.3 4.7 260
03/12/2019 14:00 3.5 80 201.7 598 0.0 1.3 4.7 255
03/12/2019 14:10 3.8 79 370.2 600 0.0 1.6 5.9 246
03/12/2019 14:20 4.4 78 413.9 600 0.0 2.3 8.3 257
03/12/2019 14:30 4.6 77 424.0 600 0.0 1.9 6.7 285
03/12/2019 14:40 5.1 75 371.2 600 0.0 1.7 6.0 292
03/12/2019 14:50 4.5 77 337.0 600 0.0 1.8 6.4 325
03/12/2019 15:00 4.7 76 264.2 600 0.0 1.2 4.4 313
03/12/2019 15:10 4.6 76 253.7 600 0.0 1.8 6.3 331
03/12/2019 15:20 4.4 76 219.1 600 0.0 1.5 5.4 330
03/12/2019 15:30 4.6 75 187.2 600 0.0 0.8 2.9 326
03/12/2019 15:40 4.6 76 126.5 600 0.0 0.9 3.1 306
03/12/2019 15:50 4.9 74 85.7 600 0.0 0.6 2.2 329
03/12/2019 16:00 4.6 76 59.1 600 0.0 0.5 1.8 350
03/12/2019 16:10 4.2 77 37.4 518 0.0 0.6 2.0 343
03/12/2019 16:20 3.8 79 8.2 0 0.0 0.6 2.0 340
03/12/2019 16:30 3.2 83 0.0 0 0.0 0.7 2.5 70
03/12/2019 16:40 2.7 86 0.0 0 0.0 1.1 3.8 48
03/12/2019 16:50 2.4 88 0.0 0 0.0 0.9 3.3 343
03/12/2019 17:00 1.7 90 0.0 0 0.0 0.5 1.9 334
03/12/2019 17:10 1.4 92 0.0 0 0.0 0.4 1.4 318
03/12/2019 17:20 1.1 93 0.0 0 0.0 0.1 0.4 105
03/12/2019 17:30 0.8 94 0.0 0 0.0 0.8 2.7 267
03/12/2019 17:40 0.6 95 0.0 0 0.0 1.5 5.3 341
03/12/2019 17:50 0.8 94 0.0 0 0.0 1.0 3.6 327
03/12/2019 18:00 0.4 94 0.0 0 0.0 0.8 2.8 312
03/12/2019 18:10 0.1 95 0.0 0 0.0 0.8 2.7 310
03/12/2019 18:20 0.1 96 0.0 0 0.0 0.3 1.2 319
03/12/2019 18:30 -0.1 96 0.0 0 0.0 0.6 2.0 301
03/12/2019 18:40 -0.2 96 0.0 0 0.0 0.2 0.8 310
03/12/2019 18:50 -0.5 96 0.0 0 0.0 0.5 1.7 303
03/12/2019 19:00 -0.8 97 0.0 0 0.0 0.9 3.2 329
03/12/2019 19:10 -0.8 97 0.0 0 0.0 0.6 2.2 343
03/12/2019 19:20 -0.8 97 0.0 0 0.0 0.5 1.7 335
03/12/2019 19:30 -1.2 97 0.0 0 0.0 0.1 0.3 338
03/12/2019 19:40 -1.4 97 0.0 0 0.0 0.3 1.0 301
03/12/2019 19:50 -1.4 97 0.0 0 0.0 0.2 0.7 332
03/12/2019 20:00 -1.3 98 0.0 0 0.0 0.0 0.1 162
03/12/2019 20:10 -1.4 98 0.0 0 0.0 0.0 0.0 158
03/12/2019 20:20 -1.4 98 0.0 0 0.0 0.0 0.1 57
03/12/2019 20:30 -1.3 98 0.0 0 0.0 0.3 1.0 8
03/12/2019 20:40 -1.7 97 0.0 0 0.0 0.1 0.2 226
03/12/2019 20:50 -1.8 98 0.0 0 0.0 0.0 0.0 310
03/12/2019 21:00 -1.5 98 0.0 0 0.0 0.1 0.4 272
03/12/2019 21:10 -1.5 98 0.0 0 0.0 0.0 0.0 221
03/12/2019 21:20 -1.6 98 0.0 0 0.0 0.2 0.6 8
03/12/2019 21:30 -1.4 98 0.0 0 0.0 0.5 1.9 332
03/12/2019 21:40 -1.3 98 0.0 0 0.0 0.4 1.4 336
03/12/2019 21:50 -1.6 98 0.0 0 0.1 0.1 0.5 167
03/12/2019 22:00 -1.8 98 0.0 0 0.0 0.4 1.4 101
03/12/2019 22:10 -1.8 98 0.0 0 0.0 0.6 2.0 121
03/12/2019 22:20 -1.9 98 0.0 0 0.0 0.0 0.1 229
03/12/2019 22:30 -2.0 98 0.0 0 0.0 0.0 0.1 212
03/12/2019 22:40 -1.9 98 0.0 0 0.0 0.3 1.0 127
03/12/2019 22:50 -1.8 98 0.0 0 0.0 0.2 0.8 148
03/12/2019 23:00 -1.7 98 0.0 0 0.0 0.3 1.2 127
03/12/2019 23:10 -2.2 98 0.0 0 0.0 0.3 1.2 130
03/12/2019 23:20 -2.3 98 0.0 0 0.0 0.1 0.4 138
03/12/2019 23:30 -2.6 98 0.0 0 0.0 0.0 0.0 0
03/12/2019 23:40 -2.6 98 0.0 0 0.0 0.3 1.2 1
03/12/2019 23:50 -2.7 98 0.0 0 0.0 0.2 0.7 349
Anterior Página 1 de 1 Siguiente

NOTA: Tipo de datos según el color:
   - Valores diarios o 10 minutos correctos
   - Valores diarios calculados a partir de un número de datos 10 minutos menor que 144 y mayor que 120, o de un número de datos semihorarios menor que 48 y mayor que 40 (caso de las estaciones de Riegos de Navarra y del MARM)
   - Valores diez minutos estimados


Contacto        Enlaces        Aviso legal